createdAt,value
2018-07-08T00:01:11.231Z,57.50
2018-07-08T00:03:39.574Z,57.60
2018-07-08T00:06:07.969Z,57.50
2018-07-08T00:08:36.290Z,57.50
2018-07-08T00:11:04.582Z,57.50
2018-07-08T00:13:32.889Z,57.50
2018-07-08T00:18:29.198Z,57.50
2018-07-08T00:20:57.495Z,57.40
2018-07-08T00:23:25.813Z,57.60
2018-07-08T00:25:54.098Z,57.70
2018-07-08T00:28:22.393Z,57.60
2018-07-08T00:30:50.727Z,57.60
2018-07-08T00:36:09.925Z,57.40
2018-07-08T00:38:38.252Z,57.60
2018-07-08T00:41:06.516Z,57.60
2018-07-08T00:43:34.798Z,57.60
2018-07-08T00:46:03.086Z,57.50
2018-07-08T00:48:31.357Z,57.50
2018-07-08T00:50:59.606Z,58.10
2018-07-08T00:53:27.869Z,57.60
2018-07-08T00:55:56.134Z,57.50
2018-07-08T00:58:24.460Z,57.50
2018-07-08T01:00:52.728Z,57.50
2018-07-08T01:03:21.034Z,57.60
2018-07-08T01:05:49.270Z,57.50
2018-07-08T01:08:17.546Z,57.70
2018-07-08T01:10:45.805Z,57.70
2018-07-08T01:13:14.068Z,57.60
2018-07-08T01:15:42.274Z,57.70
2018-07-08T01:18:10.530Z,57.70
2018-07-08T01:20:38.798Z,57.70
2018-07-08T01:23:07.944Z,57.70
2018-07-08T01:25:47.576Z,57.70
2018-07-08T01:28:15.868Z,57.70
2018-07-08T01:30:44.153Z,57.80
2018-07-08T01:33:12.399Z,57.80
2018-07-08T01:35:40.645Z,57.70
2018-07-08T01:38:08.907Z,57.70
2018-07-08T01:40:37.167Z,57.70
2018-07-08T01:43:05.381Z,57.70
2018-07-08T01:45:33.658Z,57.70
2018-07-08T01:48:01.925Z,57.60
2018-07-08T01:50:30.217Z,57.60
2018-07-08T01:52:58.470Z,57.30
2018-07-08T01:55:27.049Z,57.50
2018-07-08T01:57:55.261Z,57.40
2018-07-08T02:00:23.521Z,57.00
2018-07-08T02:02:51.777Z,57.20
2018-07-08T02:05:20.052Z,57.20
2018-07-08T02:07:48.295Z,57.10
2018-07-08T02:10:16.532Z,57.00
2018-07-08T02:12:44.802Z,57.30
2018-07-08T02:15:13.035Z,56.20
2018-07-08T02:17:41.306Z,57.20
2018-07-08T02:20:09.574Z,57.20
2018-07-08T02:22:37.885Z,57.60
2018-07-08T02:25:06.118Z,57.10
2018-07-08T02:27:34.357Z,57.00
2018-07-08T02:30:02.598Z,57.10
2018-07-08T02:32:30.868Z,57.10
2018-07-08T02:34:59.323Z,57.10
2018-07-08T02:37:27.566Z,57.10
2018-07-08T02:39:55.840Z,57.20
2018-07-08T02:42:24.083Z,57.20
2018-07-08T02:44:52.338Z,57.20
2018-07-08T02:47:20.642Z,57.20
2018-07-08T02:49:49.314Z,57.30
2018-07-08T02:52:17.881Z,57.20
2018-07-08T02:54:46.393Z,57.30
2018-07-08T02:57:14.873Z,58.00
2018-07-08T02:59:43.147Z,57.30
2018-07-08T03:02:11.458Z,57.40
2018-07-08T03:04:39.666Z,57.40
2018-07-08T03:07:07.949Z,57.40
2018-07-08T03:09:36.201Z,57.40
2018-07-08T03:12:04.441Z,57.40
2018-07-08T03:14:32.710Z,57.00
2018-07-08T03:17:00.941Z,58.10
2018-07-08T03:19:29.241Z,57.50
2018-07-08T03:21:57.481Z,57.80
2018-07-08T03:24:25.725Z,57.50
2018-07-08T03:26:53.957Z,57.50
2018-07-08T03:29:22.256Z,57.50
2018-07-08T03:31:50.533Z,57.50
2018-07-08T03:34:18.778Z,57.50
2018-07-08T03:36:46.993Z,57.60
2018-07-08T03:39:15.233Z,57.60
2018-07-08T03:41:43.505Z,57.70
2018-07-08T03:44:11.749Z,57.60
2018-07-08T03:46:40.036Z,57.70
2018-07-08T03:49:08.282Z,57.70
2018-07-08T03:51:36.497Z,57.70
2018-07-08T03:54:10.163Z,57.70
2018-07-08T03:56:38.433Z,57.70
2018-07-08T03:59:06.680Z,57.70
2018-07-08T04:01:34.975Z,57.80
2018-07-08T04:04:03.219Z,57.70
2018-07-08T04:06:31.484Z,58.10
2018-07-08T04:08:59.813Z,57.80
2018-07-08T04:11:28.138Z,57.90
2018-07-08T04:13:56.419Z,58.60
2018-07-08T04:16:24.658Z,58.00
2018-07-08T04:18:52.924Z,57.90
2018-07-08T04:21:21.185Z,57.90
2018-07-08T04:23:49.422Z,58.00
2018-07-08T04:26:17.660Z,58.00
2018-07-08T04:28:45.937Z,58.00
2018-07-08T04:31:14.174Z,58.00
2018-07-08T04:33:42.416Z,57.90
2018-07-08T04:36:10.681Z,58.00
2018-07-08T04:38:38.892Z,58.10
2018-07-08T04:41:07.153Z,58.10
2018-07-08T04:43:35.375Z,58.10
2018-07-08T04:46:04.777Z,58.10
2018-07-08T04:48:33.057Z,58.00
2018-07-08T04:51:01.995Z,58.10
2018-07-08T04:53:30.193Z,58.00
2018-07-08T04:55:58.464Z,58.00
2018-07-08T04:58:26.765Z,58.00
2018-07-08T05:00:55.066Z,58.00
2018-07-08T05:03:23.255Z,58.60
2018-07-08T05:05:51.503Z,58.00
2018-07-08T05:08:19.732Z,57.90
2018-07-08T05:10:47.980Z,57.80
2018-07-08T05:15:44.259Z,57.60
2018-07-08T05:18:12.492Z,57.80
2018-07-08T05:20:40.721Z,57.30
2018-07-08T05:23:08.962Z,57.20
2018-07-08T05:25:37.205Z,57.10
2018-07-08T05:28:05.696Z,57.10
2018-07-08T05:30:33.976Z,57.20
2018-07-08T05:33:02.205Z,57.10
2018-07-08T05:35:30.489Z,57.10
2018-07-08T05:37:58.748Z,57.10
2018-07-08T05:40:26.986Z,57.10
2018-07-08T05:42:55.252Z,57.00
2018-07-08T05:45:23.472Z,57.00
2018-07-08T05:47:51.693Z,57.00
2018-07-08T05:50:20.229Z,57.00
2018-07-08T05:52:48.188Z,56.70
2018-07-08T05:55:16.454Z,56.60
2018-07-08T05:57:44.664Z,56.70
2018-07-08T06:00:12.905Z,56.30
2018-07-08T06:05:09.182Z,56.80
2018-07-08T06:07:37.566Z,56.90
2018-07-08T06:10:05.951Z,56.60
2018-07-08T06:12:34.168Z,56.90
2018-07-08T06:15:02.392Z,56.80
2018-07-08T06:19:58.670Z,56.60
2018-07-08T06:22:26.877Z,56.60
2018-07-08T06:24:55.172Z,56.60
2018-07-08T06:27:23.421Z,56.40
2018-07-08T06:29:51.726Z,56.50
2018-07-08T06:32:19.993Z,56.50
2018-07-08T06:34:48.241Z,56.40
2018-07-08T06:37:16.485Z,56.60
2018-07-08T06:39:44.713Z,56.60
2018-07-08T06:42:12.961Z,56.60
2018-07-08T06:44:41.189Z,56.50
2018-07-08T06:47:09.468Z,56.40
2018-07-08T06:49:38.365Z,56.60
2018-07-08T06:52:06.797Z,56.50
2018-07-08T06:54:34.905Z,56.50
2018-07-08T06:57:03.171Z,56.50
2018-07-08T07:01:59.424Z,56.50
2018-07-08T07:04:27.679Z,56.40
2018-07-08T07:06:55.949Z,56.40
2018-07-08T07:09:24.210Z,55.70
2018-07-08T07:11:52.434Z,56.20
2018-07-08T07:14:20.693Z,56.10
2018-07-08T07:16:48.934Z,56.00
2018-07-08T07:19:17.381Z,55.60
2018-07-08T07:21:45.792Z,55.90
2018-07-08T07:24:14.201Z,56.00
2018-07-08T07:26:42.502Z,55.40
2018-07-08T07:29:10.779Z,55.00
2018-07-08T07:31:39.040Z,55.40
2018-07-08T07:34:07.311Z,55.70
2018-07-08T07:36:35.569Z,55.50
2018-07-08T07:39:04.479Z,53.60
2018-07-08T07:41:32.773Z,55.60
2018-07-08T07:44:01.029Z,55.60
2018-07-08T07:46:29.337Z,55.50
2018-07-08T07:48:57.673Z,55.40
2018-07-08T07:51:26.377Z,53.80
2018-07-08T07:53:55.678Z,54.50
2018-07-08T07:56:23.965Z,54.40
2018-07-08T08:01:20.815Z,54.60
2018-07-08T08:03:49.215Z,55.00
2018-07-08T08:06:17.508Z,54.40
2018-07-08T08:08:45.840Z,54.80
2018-07-08T08:11:14.229Z,55.70
2018-07-08T08:14:02.423Z,54.50
2018-07-08T08:16:30.671Z,54.80
2018-07-08T08:18:59.539Z,54.50
2018-07-08T08:21:27.812Z,54.90
2018-07-08T08:23:57.155Z,53.40
2018-07-08T08:26:25.638Z,54.60
2018-07-08T08:28:53.930Z,52.30
2018-07-08T08:31:22.165Z,51.90
2018-07-08T08:35:19.043Z,54.30
2018-07-08T08:38:01.931Z,51.90
2018-07-08T08:40:30.848Z,54.20
2018-07-08T08:42:59.066Z,54.40
2018-07-08T08:45:28.729Z,53.80
2018-07-08T08:47:56.979Z,52.30
2018-07-08T08:50:25.250Z,53.00
2018-07-08T08:52:53.512Z,52.20
2018-07-08T08:55:21.861Z,53.80
2018-07-08T08:57:50.092Z,51.40
2018-07-08T09:00:19.256Z,52.60
2018-07-08T09:02:47.640Z,53.60
2018-07-08T09:05:15.902Z,51.40
2018-07-08T09:07:44.274Z,53.50
2018-07-08T09:10:12.537Z,51.70
2018-07-08T09:12:40.839Z,52.40
2018-07-08T09:15:09.089Z,51.60
2018-07-08T09:17:37.351Z,51.60
2018-07-08T09:20:05.873Z,52.80
2018-07-08T09:22:34.105Z,52.30
2018-07-08T09:25:02.352Z,52.50
2018-07-08T09:27:30.602Z,51.10
2018-07-08T09:29:58.851Z,51.80
2018-07-08T09:32:27.086Z,51.60
2018-07-08T09:34:55.323Z,52.60
2018-07-08T09:37:23.660Z,51.70
2018-07-08T09:39:52.517Z,52.80
2018-07-08T09:42:20.725Z,50.80
2018-07-08T09:44:48.974Z,52.60
2018-07-08T09:47:17.219Z,51.40
2018-07-08T09:49:45.476Z,52.30
2018-07-08T09:52:13.728Z,52.00
2018-07-08T09:54:41.973Z,51.40
2018-07-08T09:57:10.255Z,50.90
2018-07-08T09:59:38.505Z,50.90
2018-07-08T10:02:06.782Z,52.40
2018-07-08T10:04:35.067Z,52.20
2018-07-08T10:07:03.279Z,51.10
2018-07-08T10:09:31.525Z,52.70
2018-07-08T10:11:59.793Z,50.30
2018-07-08T10:16:56.009Z,52.50
2018-07-08T10:19:24.303Z,49.00
2018-07-08T10:21:52.847Z,51.40
2018-07-08T10:24:21.101Z,52.50
2018-07-08T10:37:06.053Z,50.00
2018-07-08T10:39:34.293Z,51.10
2018-07-08T10:42:02.559Z,49.10
2018-07-08T10:44:30.797Z,49.60
2018-07-08T10:49:27.090Z,52.20
2018-07-08T10:51:55.297Z,52.20
2018-07-08T10:54:23.566Z,51.40
2018-07-08T10:56:51.877Z,48.00
2018-07-08T10:59:20.144Z,50.20
2018-07-08T11:01:48.460Z,51.10
2018-07-08T11:04:17.517Z,49.50
2018-07-08T11:06:45.769Z,50.30
2018-07-08T11:09:14.030Z,49.60
2018-07-08T11:11:42.324Z,51.00
2018-07-08T11:14:10.550Z,49.80
2018-07-08T11:16:38.797Z,48.50
2018-07-08T11:19:07.057Z,49.20
2018-07-08T11:21:35.322Z,51.10
2018-07-08T11:26:31.690Z,49.40
2018-07-08T11:28:59.982Z,48.40
2018-07-08T11:31:28.301Z,49.30
2018-07-08T11:33:56.656Z,50.00
2018-07-08T11:36:24.945Z,48.20
2018-07-08T11:38:53.477Z,51.50
2018-07-08T11:41:21.853Z,48.40
2018-07-08T11:43:50.169Z,47.80
2018-07-08T11:46:18.397Z,46.60
2018-07-08T11:48:46.746Z,49.60
2018-07-08T11:51:14.976Z,50.30
2018-07-08T11:53:43.329Z,47.80
2018-07-08T11:56:11.693Z,47.50
2018-07-08T11:58:40.014Z,47.90
2018-07-08T12:01:08.257Z,50.10
2018-07-08T12:03:36.661Z,50.90
2018-07-08T12:06:05.010Z,51.20
2018-07-08T12:08:33.252Z,48.20
2018-07-08T12:11:01.480Z,49.00
2018-07-08T12:13:29.682Z,48.70
2018-07-08T12:15:57.917Z,47.70
2018-07-08T12:18:26.172Z,49.60
2018-07-08T12:20:54.416Z,49.40
2018-07-08T12:23:22.649Z,49.50
2018-07-08T12:25:50.953Z,48.20
2018-07-08T12:28:19.209Z,50.20
2018-07-08T12:30:47.489Z,50.40
2018-07-08T12:33:15.713Z,49.00
2018-07-08T12:35:43.968Z,48.30
2018-07-08T12:38:12.269Z,47.70
2018-07-08T12:40:40.549Z,50.40
2018-07-08T12:43:08.818Z,48.80
2018-07-08T12:45:37.101Z,47.50
2018-07-08T12:48:05.471Z,48.30
2018-07-08T12:50:33.699Z,49.40
2018-07-08T12:53:01.957Z,47.00
2018-07-08T12:55:30.274Z,49.20
2018-07-08T12:57:58.489Z,47.40
2018-07-08T13:02:54.641Z,42.40
2018-07-08T13:05:22.878Z,40.10
2018-07-08T13:07:51.354Z,40.50
2018-07-08T13:10:19.589Z,40.70
2018-07-08T13:12:48.505Z,40.90
2018-07-08T13:15:17.161Z,41.30
2018-07-08T13:20:13.362Z,40.50
2018-07-08T13:22:42.768Z,41.50
2018-07-08T13:25:10.979Z,41.80
2018-07-08T13:27:39.337Z,41.70
2018-07-08T13:30:07.684Z,42.00
2018-07-08T13:32:36.174Z,41.20
2018-07-08T13:37:32.641Z,39.30
2018-07-08T13:40:01.440Z,42.40
2018-07-08T13:42:29.685Z,42.70
2018-07-08T13:44:58.090Z,39.90
2018-07-08T13:47:26.370Z,41.80
2018-07-08T13:49:54.575Z,43.20
2018-07-08T13:52:22.951Z,41.80
2018-07-08T13:54:51.184Z,43.20
2018-07-08T13:57:19.422Z,42.40
2018-07-08T13:59:47.738Z,40.50
2018-07-08T14:02:16.013Z,42.30
2018-07-08T14:04:44.293Z,40.60
2018-07-08T14:07:13.931Z,43.90
2018-07-08T14:09:43.935Z,43.80
2018-07-08T14:12:12.805Z,42.80
2018-07-08T14:14:42.438Z,40.70
2018-07-08T14:17:12.168Z,41.50
2018-07-08T14:19:41.969Z,43.20
2018-07-08T14:22:11.538Z,43.20
2018-07-08T14:24:40.281Z,42.60
2018-07-08T14:27:08.601Z,43.50
2018-07-08T14:29:36.820Z,40.00
2018-07-08T14:32:05.063Z,38.50
2018-07-08T14:37:01.517Z,42.00
2018-07-08T14:39:29.732Z,41.30
2018-07-08T14:41:57.984Z,41.60
2018-07-08T14:44:26.229Z,41.50
2018-07-08T14:46:54.498Z,39.80
2018-07-08T14:49:22.720Z,43.40
2018-07-08T14:51:50.981Z,43.50
2018-07-08T14:54:19.232Z,43.80
2018-07-08T14:56:47.512Z,42.80
2018-07-08T14:59:15.778Z,40.80
2018-07-08T15:01:44.053Z,41.30
2018-07-08T15:04:12.333Z,44.20
2018-07-08T15:06:40.597Z,42.40
2018-07-08T15:09:10.749Z,43.60
2018-07-08T15:11:39.100Z,37.70
2018-07-08T15:14:07.456Z,38.20
2018-07-08T15:16:35.735Z,39.40
2018-07-08T15:19:04.216Z,39.50
2018-07-08T15:21:32.503Z,39.10
2018-07-08T15:24:00.734Z,40.20
2018-07-08T15:26:28.995Z,37.90
2018-07-08T15:28:57.583Z,40.80
2018-07-08T15:31:25.541Z,41.00
2018-07-08T15:33:53.798Z,40.60
2018-07-08T15:36:22.047Z,37.10
2018-07-08T15:38:50.277Z,41.60
2018-07-08T15:41:18.617Z,40.10
2018-07-08T15:43:46.833Z,41.50
2018-07-08T15:46:15.108Z,38.60
2018-07-08T15:48:43.575Z,41.70
2018-07-08T15:51:11.833Z,39.80
2018-07-08T15:53:40.061Z,33.70
2018-07-08T15:56:08.544Z,42.40
2018-07-08T15:58:36.768Z,37.20
2018-07-08T16:01:05.018Z,38.00
2018-07-08T16:03:33.266Z,42.30
2018-07-08T16:06:01.669Z,39.30
2018-07-08T16:08:29.829Z,42.10
2018-07-08T16:10:58.090Z,42.40
2018-07-08T16:13:26.346Z,41.50
2018-07-08T16:15:54.571Z,41.40
2018-07-08T16:18:22.802Z,40.30
2018-07-08T16:20:51.750Z,41.10
2018-07-08T16:23:20.135Z,42.30
2018-07-08T16:25:48.431Z,42.40
2018-07-08T16:28:16.844Z,42.00
2018-07-08T16:30:45.090Z,39.20
2018-07-08T16:33:13.373Z,39.50
2018-07-08T16:35:46.262Z,40.50
2018-07-08T16:38:14.489Z,37.00
2018-07-08T16:40:42.999Z,37.00
2018-07-08T16:43:12.193Z,40.90
2018-07-08T16:45:40.430Z,41.00
2018-07-08T16:48:08.663Z,40.00
2018-07-08T16:50:36.940Z,39.10
2018-07-08T16:53:05.809Z,38.40
2018-07-08T16:55:34.352Z,40.60
2018-07-08T16:58:03.293Z,41.70
2018-07-08T17:00:31.609Z,36.60
2018-07-08T17:02:59.864Z,38.30
2018-07-08T17:05:28.209Z,37.30
2018-07-08T17:07:56.449Z,40.50
2018-07-08T17:10:24.736Z,40.30
2018-07-08T17:12:53.572Z,37.70
2018-07-08T17:15:21.957Z,39.40
2018-07-08T17:17:50.203Z,36.30
2018-07-08T17:20:18.477Z,33.70
2018-07-08T17:22:46.701Z,33.90
2018-07-08T17:25:14.916Z,39.80
2018-07-08T17:27:43.233Z,37.00
2018-07-08T17:30:12.256Z,39.40
2018-07-08T17:32:40.494Z,38.70
2018-07-08T17:35:08.721Z,33.20
2018-07-08T17:37:36.983Z,39.40
2018-07-08T17:40:05.301Z,37.80
2018-07-08T17:42:33.663Z,38.20
2018-07-08T17:45:01.888Z,37.40
2018-07-08T17:47:30.248Z,37.30
2018-07-08T17:49:58.444Z,39.10
2018-07-08T17:52:26.692Z,36.50
2018-07-08T17:54:54.925Z,38.30
2018-07-08T17:57:23.128Z,38.90
2018-07-08T17:59:51.375Z,39.50
2018-07-08T18:02:19.629Z,37.70
2018-07-08T18:04:48.018Z,40.10
2018-07-08T18:07:16.265Z,38.60
2018-07-08T18:12:12.840Z,40.60
2018-07-08T18:14:41.345Z,36.60
2018-07-08T18:17:10.023Z,41.00
2018-07-08T18:19:38.654Z,41.30
2018-07-08T18:22:07.408Z,39.90
2018-07-08T18:24:36.145Z,40.00
2018-07-08T18:27:04.563Z,40.10
2018-07-08T18:29:33.577Z,38.50
2018-07-08T18:32:01.937Z,39.50
2018-07-08T18:34:30.427Z,41.20
2018-07-08T18:36:58.888Z,40.50
2018-07-08T18:39:27.178Z,41.50
2018-07-08T18:41:55.426Z,41.70
2018-07-08T18:44:23.737Z,41.90
2018-07-08T18:46:52.004Z,39.30
2018-07-08T18:49:20.426Z,41.00
2018-07-08T18:51:48.632Z,39.70
2018-07-08T18:54:16.873Z,41.60
2018-07-08T18:56:45.097Z,42.10
2018-07-08T18:59:13.400Z,41.00
2018-07-08T19:01:41.675Z,42.20
2018-07-08T19:04:09.981Z,42.10
2018-07-08T19:06:38.252Z,42.10
2018-07-08T19:09:07.109Z,42.20
2018-07-08T19:11:35.700Z,42.40
2018-07-08T19:14:04.153Z,42.30
2018-07-08T19:19:00.513Z,42.50
2018-07-08T19:21:28.753Z,42.60
2018-07-08T19:23:57.002Z,42.60
2018-07-08T19:26:25.241Z,42.40
2018-07-08T19:28:53.466Z,42.60
2018-07-08T19:31:21.741Z,42.60
2018-07-08T19:33:49.973Z,42.50
2018-07-08T19:36:18.201Z,42.50
2018-07-08T19:38:46.508Z,42.60
2018-07-08T19:41:15.833Z,42.60
2018-07-08T19:43:44.084Z,42.70
2018-07-08T19:46:12.382Z,42.80
2018-07-08T19:48:40.721Z,42.80
2018-07-08T19:51:08.959Z,42.90
2018-07-08T19:53:37.219Z,43.00
2018-07-08T19:56:05.443Z,43.10
2018-07-08T19:58:33.928Z,43.10
2018-07-08T20:01:02.253Z,43.10
2018-07-08T20:03:30.628Z,43.10
2018-07-08T20:05:59.588Z,43.10
2018-07-08T20:08:27.817Z,43.10
2018-07-08T20:10:56.051Z,43.10
2018-07-08T20:13:24.317Z,43.20
2018-07-08T20:15:52.956Z,43.30
2018-07-08T20:18:21.321Z,43.30
2018-07-08T20:20:49.759Z,43.40
2018-07-08T20:23:17.946Z,43.40
2018-07-08T20:25:46.202Z,43.40
2018-07-08T20:28:14.431Z,43.40
2018-07-08T20:30:42.713Z,43.40
2018-07-08T20:33:10.948Z,43.40
2018-07-08T20:35:39.247Z,43.50
2018-07-08T20:38:07.755Z,43.50
2018-07-08T20:40:36.396Z,43.50
2018-07-08T20:43:04.798Z,43.50
2018-07-08T20:45:33.125Z,44.20
2018-07-08T20:48:01.372Z,43.60
2018-07-08T20:50:29.630Z,43.70
2018-07-08T20:52:57.881Z,43.80
2018-07-08T20:55:26.316Z,43.80
2018-07-08T20:57:54.572Z,43.80
2018-07-08T21:00:22.857Z,43.80
2018-07-08T21:02:51.089Z,43.80
2018-07-08T21:05:20.381Z,43.90
2018-07-08T21:07:48.661Z,43.90
2018-07-08T21:10:16.961Z,43.90
2018-07-08T21:12:45.357Z,44.00
2018-07-08T21:15:13.680Z,44.70
2018-07-08T21:17:42.206Z,44.10
2018-07-08T21:20:10.444Z,44.20
2018-07-08T21:22:38.885Z,44.10
2018-07-08T21:25:07.663Z,44.20
2018-07-08T21:27:35.897Z,44.20
2018-07-08T21:30:04.329Z,44.20
2018-07-08T21:32:32.717Z,44.30
2018-07-08T21:35:00.956Z,44.30
2018-07-08T21:37:29.275Z,44.30
2018-07-08T21:39:57.509Z,44.40
2018-07-08T21:42:25.972Z,45.00
2018-07-08T21:44:54.628Z,44.40
2018-07-08T21:47:22.873Z,44.40
2018-07-08T21:49:51.118Z,44.60
2018-07-08T21:52:19.353Z,44.50
2018-07-08T21:54:47.612Z,44.50
2018-07-08T21:57:15.933Z,44.50
2018-07-08T21:59:44.100Z,44.50
2018-07-08T22:02:18.009Z,44.60
2018-07-08T22:04:46.637Z,44.60
2018-07-08T22:07:20.566Z,44.60
2018-07-08T22:09:48.809Z,44.70
2018-07-08T22:12:17.203Z,44.60
2018-07-08T22:14:45.625Z,44.70
2018-07-08T22:17:13.866Z,44.60
2018-07-08T22:19:42.237Z,44.70
2018-07-08T22:22:10.473Z,44.70
2018-07-08T22:24:38.748Z,44.70
2018-07-08T22:27:07.079Z,44.80
2018-07-08T22:29:35.866Z,44.80
2018-07-08T22:32:04.125Z,44.80
2018-07-08T22:34:32.381Z,44.80
2018-07-08T22:37:00.634Z,44.80
2018-07-08T22:39:28.891Z,44.90
2018-07-08T22:41:57.117Z,44.90
2018-07-08T22:44:25.551Z,45.00
2018-07-08T22:46:53.782Z,45.60
2018-07-08T22:49:22.001Z,45.00
2018-07-08T22:51:50.209Z,45.10
2018-07-08T22:54:18.442Z,45.10
2018-07-08T22:56:46.661Z,45.10
2018-07-08T22:59:14.931Z,45.10
2018-07-08T23:01:54.449Z,45.10
2018-07-08T23:04:22.681Z,45.10
2018-07-08T23:06:50.909Z,45.10
2018-07-08T23:09:19.147Z,45.10
2018-07-08T23:11:47.376Z,45.10
2018-07-08T23:14:15.614Z,45.20
2018-07-08T23:16:43.858Z,45.10
2018-07-08T23:19:12.090Z,45.30
2018-07-08T23:21:40.355Z,45.20
2018-07-08T23:24:08.590Z,45.20
2018-07-08T23:26:36.838Z,45.30
2018-07-08T23:29:05.112Z,45.30
2018-07-08T23:31:33.353Z,45.30
2018-07-08T23:34:01.617Z,45.40
2018-07-08T23:36:29.841Z,45.30
2018-07-08T23:38:58.070Z,45.50
2018-07-08T23:41:26.329Z,45.30
2018-07-08T23:43:54.862Z,45.40
2018-07-08T23:46:23.138Z,45.50
2018-07-08T23:48:51.379Z,45.50
2018-07-08T23:51:19.636Z,45.40
2018-07-08T23:53:47.986Z,45.50
2018-07-08T23:56:16.205Z,45.60
2018-07-08T23:58:44.642Z,45.50
